Casstown, Ohio
Current Conditions -  °F | °C
As of 5:03 AM on Monday 26 Jan 2015 (Local Time) from KDAY Reporting Station
Light Snow Light Snow  
Wind Chill:   Ceiling: 1300
Heat Index: 18°   Visibility: 8mi
Dew Point: 14°   Wind: 15mph
Humidity: 84%   Direction: 360°N
Pressure: 29.81"   Gusts: NA
Location:  40.05°N, 84.13°W
Report Text: KDAY 261003Z 36013KT 8SM -SN BKN013 OVC023 M08/M10 A2981 RMK AO2 SNB02 P0015 T10781100
Loading
Personal Weather Stations






























Interactive Weather Map New forecast layout! Learn more

10-Day Weather Forecast

Advertisements
Track Severe Weather on mobile